sensor_id;sensor_type;location;lat;lon;timestamp;temperature;humidity
70456;DHT22;57916;51.996;5.180;2022-10-22T00:00:01;19.10;69.10
70456;DHT22;57916;51.996;5.180;2022-10-22T00:02:30;19.00;69.00
70456;DHT22;57916;51.996;5.180;2022-10-22T00:04:57;18.90;69.10
70456;DHT22;57916;51.996;5.180;2022-10-22T00:07:24;18.90;69.40
70456;DHT22;57916;51.996;5.180;2022-10-22T00:09:51;18.80;69.50
70456;DHT22;57916;51.996;5.180;2022-10-22T00:12:18;18.80;69.50
70456;DHT22;57916;51.996;5.180;2022-10-22T00:14:46;18.80;69.40
70456;DHT22;57916;51.996;5.180;2022-10-22T00:17:13;18.70;69.50
70456;DHT22;57916;51.996;5.180;2022-10-22T00:19:40;18.70;69.70
70456;DHT22;57916;51.996;5.180;2022-10-22T00:22:07;18.70;70.00
70456;DHT22;57916;51.996;5.180;2022-10-22T00:24:37;18.60;70.10
70456;DHT22;57916;51.996;5.180;2022-10-22T00:27:05;18.70;71.10
70456;DHT22;57916;51.996;5.180;2022-10-22T00:29:32;18.70;70.40
70456;DHT22;57916;51.996;5.180;2022-10-22T00:31:59;18.70;70.60
70456;DHT22;57916;51.996;5.180;2022-10-22T00:34:26;18.70;70.80
70456;DHT22;57916;51.996;5.180;2022-10-22T00:36:54;18.60;71.00
70456;DHT22;57916;51.996;5.180;2022-10-22T00:39:22;18.70;71.10
70456;DHT22;57916;51.996;5.180;2022-10-22T00:41:51;18.70;71.20
70456;DHT22;57916;51.996;5.180;2022-10-22T00:47:23;18.70;71.10
70456;DHT22;57916;51.996;5.180;2022-10-22T00:49:52;18.70;71.10
70456;DHT22;57916;51.996;5.180;2022-10-22T00:52:19;18.70;71.10
70456;DHT22;57916;51.996;5.180;2022-10-22T00:54:47;18.70;71.00
70456;DHT22;57916;51.996;5.180;2022-10-22T00:57:15;18.80;71.00
70456;DHT22;57916;51.996;5.180;2022-10-22T00:59:43;18.80;70.90
70456;DHT22;57916;51.996;5.180;2022-10-22T01:02:10;18.80;70.90
70456;DHT22;57916;51.996;5.180;2022-10-22T01:04:37;18.70;70.80
70456;DHT22;57916;51.996;5.180;2022-10-22T01:07:04;18.80;70.80
70456;DHT22;57916;51.996;5.180;2022-10-22T01:17:20;18.80;70.60
70456;DHT22;57916;51.996;5.180;2022-10-22T01:22:54;18.70;70.50
70456;DHT22;57916;51.996;5.180;2022-10-22T01:25:34;18.70;70.30
70456;DHT22;57916;51.996;5.180;2022-10-22T01:30:48;18.60;70.30
70456;DHT22;57916;51.996;5.180;2022-10-22T01:33:18;18.60;70.20
70456;DHT22;57916;51.996;5.180;2022-10-22T01:35:45;18.70;70.20
70456;DHT22;57916;51.996;5.180;2022-10-22T01:38:19;18.60;70.10
70456;DHT22;57916;51.996;5.180;2022-10-22T01:40:47;18.60;70.00
70456;DHT22;57916;51.996;5.180;2022-10-22T01:43:14;18.60;70.10
70456;DHT22;57916;51.996;5.180;2022-10-22T01:45:55;18.60;70.20
70456;DHT22;57916;51.996;5.180;2022-10-22T01:54:06;18.50;70.00
70456;DHT22;57916;51.996;5.180;2022-10-22T02:04:48;18.40;69.90
70456;DHT22;57916;51.996;5.180;2022-10-22T02:07:18;18.40;70.00
70456;DHT22;57916;51.996;5.180;2022-10-22T02:09:48;18.40;70.00
70456;DHT22;57916;51.996;5.180;2022-10-22T02:12:16;18.30;70.10
70456;DHT22;57916;51.996;5.180;2022-10-22T02:14:46;18.30;70.20
70456;DHT22;57916;51.996;5.180;2022-10-22T02:17:19;18.30;70.40
70456;DHT22;57916;51.996;5.180;2022-10-22T02:19:52;18.30;70.40
70456;DHT22;57916;51.996;5.180;2022-10-22T02:22:20;18.30;70.50
70456;DHT22;57916;51.996;5.180;2022-10-22T02:24:48;18.30;70.40
70456;DHT22;57916;51.996;5.180;2022-10-22T02:30:12;18.30;70.20
70456;DHT22;57916;51.996;5.180;2022-10-22T02:32:56;18.40;70.20
70456;DHT22;57916;51.996;5.180;2022-10-22T02:35:26;18.30;70.20
70456;DHT22;57916;51.996;5.180;2022-10-22T02:37:55;18.30;70.10
70456;DHT22;57916;51.996;5.180;2022-10-22T02:40:23;18.30;70.20
70456;DHT22;57916;51.996;5.180;2022-10-22T02:42:50;18.30;70.20
70456;DHT22;57916;51.996;5.180;2022-10-22T02:45:19;18.30;70.20
70456;DHT22;57916;51.996;5.180;2022-10-22T02:47:46;18.30;70.20
70456;DHT22;57916;51.996;5.180;2022-10-22T02:50:13;18.30;70.40
70456;DHT22;57916;51.996;5.180;2022-10-22T02:52:40;18.30;70.30
70456;DHT22;57916;51.996;5.180;2022-10-22T02:55:08;18.30;70.40
70456;DHT22;57916;51.996;5.180;2022-10-22T02:57:35;18.30;70.40
70456;DHT22;57916;51.996;5.180;2022-10-22T03:00:04;18.30;70.50
70456;DHT22;57916;51.996;5.180;2022-10-22T03:02:31;18.30;70.50
70456;DHT22;57916;51.996;5.180;2022-10-22T03:04:57;18.20;70.40
70456;DHT22;57916;51.996;5.180;2022-10-22T03:07:24;18.20;70.30
70456;DHT22;57916;51.996;5.180;2022-10-22T03:09:51;18.30;70.40
70456;DHT22;57916;51.996;5.180;2022-10-22T03:12:18;18.30;70.40
70456;DHT22;57916;51.996;5.180;2022-10-22T03:14:45;18.20;70.40
70456;DHT22;57916;51.996;5.180;2022-10-22T03:17:12;18.20;70.50
70456;DHT22;57916;51.996;5.180;2022-10-22T03:19:39;18.10;70.60
70456;DHT22;57916;51.996;5.180;2022-10-22T03:22:12;18.10;70.60
70456;DHT22;57916;51.996;5.180;2022-10-22T03:24:43;18.10;70.60
70456;DHT22;57916;51.996;5.180;2022-10-22T03:27:12;18.20;70.60
70456;DHT22;57916;51.996;5.180;2022-10-22T03:29:41;18.10;70.60
70456;DHT22;57916;51.996;5.180;2022-10-22T03:32:08;18.10;70.70
70456;DHT22;57916;51.996;5.180;2022-10-22T03:34:35;18.10;70.50
70456;DHT22;57916;51.996;5.180;2022-10-22T03:37:02;18.10;70.70
70456;DHT22;57916;51.996;5.180;2022-10-22T03:39:30;18.00;70.80
70456;DHT22;57916;51.996;5.180;2022-10-22T03:41:59;18.00;70.80
70456;DHT22;57916;51.996;5.180;2022-10-22T03:44:27;18.00;70.90
70456;DHT22;57916;51.996;5.180;2022-10-22T03:46:54;18.00;71.00
70456;DHT22;57916;51.996;5.180;2022-10-22T03:49:27;18.00;70.90
70456;DHT22;57916;51.996;5.180;2022-10-22T03:51:54;18.00;70.90
70456;DHT22;57916;51.996;5.180;2022-10-22T03:54:21;18.00;70.80
70456;DHT22;57916;51.996;5.180;2022-10-22T03:56:48;18.00;70.80
70456;DHT22;57916;51.996;5.180;2022-10-22T03:59:15;18.00;70.80
70456;DHT22;57916;51.996;5.180;2022-10-22T04:01:42;18.00;70.70
70456;DHT22;57916;51.996;5.180;2022-10-22T04:04:08;18.00;70.70
70456;DHT22;57916;51.996;5.180;2022-10-22T04:06:35;18.00;70.60
70456;DHT22;57916;51.996;5.180;2022-10-22T04:09:02;18.00;70.60
70456;DHT22;57916;51.996;5.180;2022-10-22T04:11:29;18.00;70.70
70456;DHT22;57916;51.996;5.180;2022-10-22T04:13:56;18.00;70.60
70456;DHT22;57916;51.996;5.180;2022-10-22T04:16:23;18.00;70.70
70456;DHT22;57916;51.996;5.180;2022-10-22T04:18:56;18.00;70.60
70456;DHT22;57916;51.996;5.180;2022-10-22T04:21:23;17.90;70.70
70456;DHT22;57916;51.996;5.180;2022-10-22T04:23:51;17.90;70.70
70456;DHT22;57916;51.996;5.180;2022-10-22T04:26:19;17.90;70.80
70456;DHT22;57916;51.996;5.180;2022-10-22T04:28:47;17.90;70.80
70456;DHT22;57916;51.996;5.180;2022-10-22T04:31:20;17.80;71.70
70456;DHT22;57916;51.996;5.180;2022-10-22T04:33:51;17.80;70.90
70456;DHT22;57916;51.996;5.180;2022-10-22T04:36:18;17.80;70.90
70456;DHT22;57916;51.996;5.180;2022-10-22T04:38:46;17.80;71.00
70456;DHT22;57916;51.996;5.180;2022-10-22T04:41:22;17.80;71.00
70456;DHT22;57916;51.996;5.180;2022-10-22T04:43:49;17.80;70.90
70456;DHT22;57916;51.996;5.180;2022-10-22T04:46:17;17.90;70.90
70456;DHT22;57916;51.996;5.180;2022-10-22T04:48:45;17.80;70.80
70456;DHT22;57916;51.996;5.180;2022-10-22T04:51:17;17.80;70.80
70456;DHT22;57916;51.996;5.180;2022-10-22T04:53:45;17.80;70.80
70456;DHT22;57916;51.996;5.180;2022-10-22T04:56:15;17.80;70.80
70456;DHT22;57916;51.996;5.180;2022-10-22T04:58:42;17.80;70.90
70456;DHT22;57916;51.996;5.180;2022-10-22T05:01:18;17.80;70.90
70456;DHT22;57916;51.996;5.180;2022-10-22T05:03:48;17.80;71.70
70456;DHT22;57916;51.996;5.180;2022-10-22T05:06:16;17.80;71.00
70456;DHT22;57916;51.996;5.180;2022-10-22T05:08:43;17.80;70.90
70456;DHT22;57916;51.996;5.180;2022-10-22T05:11:22;17.80;71.00
70456;DHT22;57916;51.996;5.180;2022-10-22T05:13:49;17.80;71.10
70456;DHT22;57916;51.996;5.180;2022-10-22T05:16:16;17.70;71.10
70456;DHT22;57916;51.996;5.180;2022-10-22T05:18:44;17.70;71.30
70456;DHT22;57916;51.996;5.180;2022-10-22T05:21:17;17.70;71.40
70456;DHT22;57916;51.996;5.180;2022-10-22T05:23:45;17.70;71.30
70456;DHT22;57916;51.996;5.180;2022-10-22T05:26:15;17.70;71.40
70456;DHT22;57916;51.996;5.180;2022-10-22T05:28:42;17.70;71.40
70456;DHT22;57916;51.996;5.180;2022-10-22T05:31:11;17.70;71.40
70456;DHT22;57916;51.996;5.180;2022-10-22T05:33:38;17.70;71.30
70456;DHT22;57916;51.996;5.180;2022-10-22T05:36:07;17.70;71.30
70456;DHT22;57916;51.996;5.180;2022-10-22T05:38:34;17.60;71.30
70456;DHT22;57916;51.996;5.180;2022-10-22T05:41:05;17.60;71.20
70456;DHT22;57916;51.996;5.180;2022-10-22T05:43:32;17.70;71.30
70456;DHT22;57916;51.996;5.180;2022-10-22T05:46:08;17.70;71.30
70456;DHT22;57916;51.996;5.180;2022-10-22T05:48:36;17.60;71.20
70456;DHT22;57916;51.996;5.180;2022-10-22T05:51:08;17.70;71.20
70456;DHT22;57916;51.996;5.180;2022-10-22T05:53:38;17.70;71.30
70456;DHT22;57916;51.996;5.180;2022-10-22T05:56:10;17.60;71.20
70456;DHT22;57916;51.996;5.180;2022-10-22T05:58:38;17.60;71.30
70456;DHT22;57916;51.996;5.180;2022-10-22T06:01:18;17.60;71.40
70456;DHT22;57916;51.996;5.180;2022-10-22T06:03:47;17.60;71.40
70456;DHT22;57916;51.996;5.180;2022-10-22T06:06:20;17.50;71.40
70456;DHT22;57916;51.996;5.180;2022-10-22T06:08:48;17.50;71.60
70456;DHT22;57916;51.996;5.180;2022-10-22T06:11:17;17.50;71.70
70456;DHT22;57916;51.996;5.180;2022-10-22T06:13:45;17.50;71.90
70456;DHT22;57916;51.996;5.180;2022-10-22T06:16:12;17.50;71.90
70456;DHT22;57916;51.996;5.180;2022-10-22T06:18:39;17.50;71.90
70456;DHT22;57916;51.996;5.180;2022-10-22T06:21:09;17.60;71.90
70456;DHT22;57916;51.996;5.180;2022-10-22T06:23:37;17.60;71.90
70456;DHT22;57916;51.996;5.180;2022-10-22T06:26:05;17.60;72.80
70456;DHT22;57916;51.996;5.180;2022-10-22T06:28:33;17.60;71.90
70456;DHT22;57916;51.996;5.180;2022-10-22T06:31:01;17.60;71.90
70456;DHT22;57916;51.996;5.180;2022-10-22T06:33:31;17.60;72.70
70456;DHT22;57916;51.996;5.180;2022-10-22T06:36:12;17.60;71.90
70456;DHT22;57916;51.996;5.180;2022-10-22T06:38:39;17.60;72.00
70456;DHT22;57916;51.996;5.180;2022-10-22T06:41:11;17.60;71.90
70456;DHT22;57916;51.996;5.180;2022-10-22T06:43:39;17.60;71.90
70456;DHT22;57916;51.996;5.180;2022-10-22T06:46:08;17.70;72.00
70456;DHT22;57916;51.996;5.180;2022-10-22T06:48:36;17.70;72.00
70456;DHT22;57916;51.996;5.180;2022-10-22T06:51:05;17.70;72.00
70456;DHT22;57916;51.996;5.180;2022-10-22T06:53:33;17.70;72.00
70456;DHT22;57916;51.996;5.180;2022-10-22T06:56:08;17.70;72.00
70456;DHT22;57916;51.996;5.180;2022-10-22T06:58:36;17.70;72.00
70456;DHT22;57916;51.996;5.180;2022-10-22T07:01:13;17.70;71.90
70456;DHT22;57916;51.996;5.180;2022-10-22T07:03:41;17.80;72.10
70456;DHT22;57916;51.996;5.180;2022-10-22T07:06:10;17.80;71.70
70456;DHT22;57916;51.996;5.180;2022-10-22T07:08:38;17.90;71.60
70456;DHT22;57916;51.996;5.180;2022-10-22T07:11:24;17.90;71.50
70456;DHT22;57916;51.996;5.180;2022-10-22T07:13:54;17.90;71.30
70456;DHT22;57916;51.996;5.180;2022-10-22T07:16:21;17.90;71.30
70456;DHT22;57916;51.996;5.180;2022-10-22T07:18:51;17.90;71.50
70456;DHT22;57916;51.996;5.180;2022-10-22T07:21:18;18.00;71.70
70456;DHT22;57916;51.996;5.180;2022-10-22T07:23:46;18.00;72.00
70456;DHT22;57916;51.996;5.180;2022-10-22T07:26:15;18.00;72.10
70456;DHT22;57916;51.996;5.180;2022-10-22T07:28:42;18.10;72.00
70456;DHT22;57916;51.996;5.180;2022-10-22T07:31:10;18.20;72.80
70456;DHT22;57916;51.996;5.180;2022-10-22T07:33:38;18.20;71.80
70456;DHT22;57916;51.996;5.180;2022-10-22T07:36:08;18.30;71.80
70456;DHT22;57916;51.996;5.180;2022-10-22T07:38:35;18.30;71.60
70456;DHT22;57916;51.996;5.180;2022-10-22T07:41:02;18.40;71.60
70456;DHT22;57916;51.996;5.180;2022-10-22T07:43:29;18.40;71.30
70456;DHT22;57916;51.996;5.180;2022-10-22T07:45:56;18.50;71.40
70456;DHT22;57916;51.996;5.180;2022-10-22T07:48:25;18.50;71.50
70456;DHT22;57916;51.996;5.180;2022-10-22T07:50:52;18.60;71.80
70456;DHT22;57916;51.996;5.180;2022-10-22T07:53:19;18.70;71.60
70456;DHT22;57916;51.996;5.180;2022-10-22T07:55:50;18.80;71.30
70456;DHT22;57916;51.996;5.180;2022-10-22T07:58:18;18.90;70.70
70456;DHT22;57916;51.996;5.180;2022-10-22T08:00:46;19.00;70.30
70456;DHT22;57916;51.996;5.180;2022-10-22T08:03:14;19.10;70.20
70456;DHT22;57916;51.996;5.180;2022-10-22T08:05:42;19.10;70.00
70456;DHT22;57916;51.996;5.180;2022-10-22T08:08:13;19.20;69.90
70456;DHT22;57916;51.996;5.180;2022-10-22T08:10:40;19.20;69.50
70456;DHT22;57916;51.996;5.180;2022-10-22T08:13:07;19.20;69.70
70456;DHT22;57916;51.996;5.180;2022-10-22T08:15:35;19.30;69.50
70456;DHT22;57916;51.996;5.180;2022-10-22T08:18:02;19.30;69.60
70456;DHT22;57916;51.996;5.180;2022-10-22T08:20:29;19.30;69.40
70456;DHT22;57916;51.996;5.180;2022-10-22T08:22:56;19.40;69.60
70456;DHT22;57916;51.996;5.180;2022-10-22T08:25:23;19.40;69.50
70456;DHT22;57916;51.996;5.180;2022-10-22T08:27:50;19.50;69.00
70456;DHT22;57916;51.996;5.180;2022-10-22T08:30:18;19.60;68.80
70456;DHT22;57916;51.996;5.180;2022-10-22T08:32:45;19.60;68.50
70456;DHT22;57916;51.996;5.180;2022-10-22T08:35:14;19.70;68.50
70456;DHT22;57916;51.996;5.180;2022-10-22T08:37:44;19.60;68.30
70456;DHT22;57916;51.996;5.180;2022-10-22T08:40:20;19.70;68.70
70456;DHT22;57916;51.996;5.180;2022-10-22T08:43:19;19.80;68.40
70456;DHT22;57916;51.996;5.180;2022-10-22T08:48:49;19.80;68.10
70456;DHT22;57916;51.996;5.180;2022-10-22T08:51:25;19.80;68.30
70456;DHT22;57916;51.996;5.180;2022-10-22T08:54:12;19.80;68.00
70456;DHT22;57916;51.996;5.180;2022-10-22T08:56:44;19.90;68.30
70456;DHT22;57916;51.996;5.180;2022-10-22T09:01:45;19.90;67.80
70456;DHT22;57916;51.996;5.180;2022-10-22T09:06:40;19.90;68.10
70456;DHT22;57916;51.996;5.180;2022-10-22T09:09:14;19.90;68.20
70456;DHT22;57916;51.996;5.180;2022-10-22T09:11:48;19.90;68.10
70456;DHT22;57916;51.996;5.180;2022-10-22T09:14:20;19.90;68.10
70456;DHT22;57916;51.996;5.180;2022-10-22T09:19:28;20.10;68.90
70456;DHT22;57916;51.996;5.180;2022-10-22T09:24:47;20.30;68.20
70456;DHT22;57916;51.996;5.180;2022-10-22T09:27:20;20.40;68.00
70456;DHT22;57916;51.996;5.180;2022-10-22T09:29:51;20.50;68.10
70456;DHT22;57916;51.996;5.180;2022-10-22T09:32:18;20.70;67.50
70456;DHT22;57916;51.996;5.180;2022-10-22T09:34:46;20.80;66.80
70456;DHT22;57916;51.996;5.180;2022-10-22T09:37:16;20.90;66.50
70456;DHT22;57916;51.996;5.180;2022-10-22T09:39:46;20.90;66.10
70456;DHT22;57916;51.996;5.180;2022-10-22T09:42:16;20.90;66.40
70456;DHT22;57916;51.996;5.180;2022-10-22T09:44:53;21.00;66.30
70456;DHT22;57916;51.996;5.180;2022-10-22T09:47:34;21.10;66.00
70456;DHT22;57916;51.996;5.180;2022-10-22T09:53:03;21.20;65.30
70456;DHT22;57916;51.996;5.180;2022-10-22T09:55:30;21.20;65.60
70456;DHT22;57916;51.996;5.180;2022-10-22T09:57:59;21.30;67.10
70456;DHT22;57916;51.996;5.180;2022-10-22T10:00:27;21.50;66.20
70456;DHT22;57916;51.996;5.180;2022-10-22T10:02:57;21.70;65.50
70456;DHT22;57916;51.996;5.180;2022-10-22T10:05:28;21.80;65.20
70456;DHT22;57916;51.996;5.180;2022-10-22T10:07:56;22.00;64.80
70456;DHT22;57916;51.996;5.180;2022-10-22T10:10:36;22.10;63.70
70456;DHT22;57916;51.996;5.180;2022-10-22T10:13:10;22.20;63.60
70456;DHT22;57916;51.996;5.180;2022-10-22T10:21:46;22.50;63.10
70456;DHT22;57916;51.996;5.180;2022-10-22T10:24:45;22.50;61.90
70456;DHT22;57916;51.996;5.180;2022-10-22T10:27:29;22.40;61.80
70456;DHT22;57916;51.996;5.180;2022-10-22T10:30:02;22.40;61.80
70456;DHT22;57916;51.996;5.180;2022-10-22T10:40:37;22.40;62.30
70456;DHT22;57916;51.996;5.180;2022-10-22T10:43:38;22.40;61.80
70456;DHT22;57916;51.996;5.180;2022-10-22T10:46:22;22.40;61.40
70456;DHT22;57916;51.996;5.180;2022-10-22T10:57:08;22.40;61.60
70456;DHT22;57916;51.996;5.180;2022-10-22T11:00:31;22.50;61.20
70456;DHT22;57916;51.996;5.180;2022-10-22T11:03:16;22.50;60.90
70456;DHT22;57916;51.996;5.180;2022-10-22T11:05:53;22.50;60.80
70456;DHT22;57916;51.996;5.180;2022-10-22T11:08:26;22.50;60.60
70456;DHT22;57916;51.996;5.180;2022-10-22T11:14:00;22.60;61.10
70456;DHT22;57916;51.996;5.180;2022-10-22T11:16:52;22.70;60.70
70456;DHT22;57916;51.996;5.180;2022-10-22T11:19:41;22.70;59.20
70456;DHT22;57916;51.996;5.180;2022-10-22T11:27:52;22.40;58.80
70456;DHT22;57916;51.996;5.180;2022-10-22T11:30:33;22.30;59.30
70456;DHT22;57916;51.996;5.180;2022-10-22T11:33:09;22.20;58.80
70456;DHT22;57916;51.996;5.180;2022-10-22T11:35:40;22.20;58.80
70456;DHT22;57916;51.996;5.180;2022-10-22T11:38:12;22.10;59.40
70456;DHT22;57916;51.996;5.180;2022-10-22T11:41:09;22.00;60.60
70456;DHT22;57916;51.996;5.180;2022-10-22T11:44:18;22.00;61.60
70456;DHT22;57916;51.996;5.180;2022-10-22T11:47:03;22.00;60.10
70456;DHT22;57916;51.996;5.180;2022-10-22T11:49:42;22.00;60.00
70456;DHT22;57916;51.996;5.180;2022-10-22T11:58:31;21.90;59.70
70456;DHT22;57916;51.996;5.180;2022-10-22T12:14:01;21.80;60.60
70456;DHT22;57916;51.996;5.180;2022-10-22T12:16:47;21.80;60.30
70456;DHT22;57916;51.996;5.180;2022-10-22T12:21:56;21.80;60.20
70456;DHT22;57916;51.996;5.180;2022-10-22T12:24:24;21.80;60.70
70456;DHT22;57916;51.996;5.180;2022-10-22T12:26:55;21.90;60.20
70456;DHT22;57916;51.996;5.180;2022-10-22T12:29:22;21.90;60.30
70456;DHT22;57916;51.996;5.180;2022-10-22T12:31:51;22.00;60.20
70456;DHT22;57916;51.996;5.180;2022-10-22T12:34:22;22.00;59.50
70456;DHT22;57916;51.996;5.180;2022-10-22T12:36:51;22.00;58.60
70456;DHT22;57916;51.996;5.180;2022-10-22T12:39:24;22.00;58.80
70456;DHT22;57916;51.996;5.180;2022-10-22T12:41:53;22.10;59.10
70456;DHT22;57916;51.996;5.180;2022-10-22T12:44:20;22.10;58.50
70456;DHT22;57916;51.996;5.180;2022-10-22T12:46:48;22.10;58.90
70456;DHT22;57916;51.996;5.180;2022-10-22T12:49:34;22.10;60.10
70456;DHT22;57916;51.996;5.180;2022-10-22T12:52:07;22.20;58.90
70456;DHT22;57916;51.996;5.180;2022-10-22T12:54:39;22.20;59.00
70456;DHT22;57916;51.996;5.180;2022-10-22T12:57:14;22.20;59.70
70456;DHT22;57916;51.996;5.180;2022-10-22T12:59:45;22.20;58.70
70456;DHT22;57916;51.996;5.180;2022-10-22T13:02:25;22.20;59.90
70456;DHT22;57916;51.996;5.180;2022-10-22T13:07:49;22.20;59.50
70456;DHT22;57916;51.996;5.180;2022-10-22T13:12:49;22.30;59.50
70456;DHT22;57916;51.996;5.180;2022-10-22T13:20:32;22.20;59.30
70456;DHT22;57916;51.996;5.180;2022-10-22T13:23:00;22.20;60.00
70456;DHT22;57916;51.996;5.180;2022-10-22T13:25:29;22.10;59.90
70456;DHT22;57916;51.996;5.180;2022-10-22T13:28:18;22.10;60.40
70456;DHT22;57916;51.996;5.180;2022-10-22T13:30:57;22.10;60.30
70456;DHT22;57916;51.996;5.180;2022-10-22T13:35:55;22.00;60.70
70456;DHT22;57916;51.996;5.180;2022-10-22T13:38:24;22.00;60.30
70456;DHT22;57916;51.996;5.180;2022-10-22T13:40:52;22.00;60.50
70456;DHT22;57916;51.996;5.180;2022-10-22T13:43:19;22.00;61.20
70456;DHT22;57916;51.996;5.180;2022-10-22T13:45:47;22.10;61.40
70456;DHT22;57916;51.996;5.180;2022-10-22T13:48:19;22.10;61.10
70456;DHT22;57916;51.996;5.180;2022-10-22T13:50:49;22.10;61.00
70456;DHT22;57916;51.996;5.180;2022-10-22T13:53:18;22.10;61.80
70456;DHT22;57916;51.996;5.180;2022-10-22T13:55:46;22.20;61.80
70456;DHT22;57916;51.996;5.180;2022-10-22T13:58:15;22.20;62.40
70456;DHT22;57916;51.996;5.180;2022-10-22T14:00:51;22.20;61.60
70456;DHT22;57916;51.996;5.180;2022-10-22T14:03:24;22.30;61.10
70456;DHT22;57916;51.996;5.180;2022-10-22T14:05:51;22.30;61.40
70456;DHT22;57916;51.996;5.180;2022-10-22T14:08:20;22.30;61.20
70456;DHT22;57916;51.996;5.180;2022-10-22T14:10:48;22.20;60.70
70456;DHT22;57916;51.996;5.180;2022-10-22T14:13:17;22.20;60.70
70456;DHT22;57916;51.996;5.180;2022-10-22T14:15:46;22.10;60.90
70456;DHT22;57916;51.996;5.180;2022-10-22T14:18:34;22.10;60.90
70456;DHT22;57916;51.996;5.180;2022-10-22T14:21:02;22.10;61.30
70456;DHT22;57916;51.996;5.180;2022-10-22T14:23:33;22.00;60.90
70456;DHT22;57916;51.996;5.180;2022-10-22T14:26:02;22.00;61.30
70456;DHT22;57916;51.996;5.180;2022-10-22T14:28:29;21.90;61.00
70456;DHT22;57916;51.996;5.180;2022-10-22T14:31:02;21.90;60.70
70456;DHT22;57916;51.996;5.180;2022-10-22T14:33:31;21.90;60.30
70456;DHT22;57916;51.996;5.180;2022-10-22T14:36:00;21.90;60.20
70456;DHT22;57916;51.996;5.180;2022-10-22T14:38:27;21.80;60.10
70456;DHT22;57916;51.996;5.180;2022-10-22T14:40:55;21.80;60.20
70456;DHT22;57916;51.996;5.180;2022-10-22T14:43:27;21.80;60.50
70456;DHT22;57916;51.996;5.180;2022-10-22T14:45:54;21.80;60.20
70456;DHT22;57916;51.996;5.180;2022-10-22T14:48:21;21.80;60.30
70456;DHT22;57916;51.996;5.180;2022-10-22T14:50:47;21.70;60.40
70456;DHT22;57916;51.996;5.180;2022-10-22T14:53:15;21.80;60.40
70456;DHT22;57916;51.996;5.180;2022-10-22T14:55:43;21.70;60.30
70456;DHT22;57916;51.996;5.180;2022-10-22T14:58:10;21.80;60.20
70456;DHT22;57916;51.996;5.180;2022-10-22T15:00:40;21.70;59.50
70456;DHT22;57916;51.996;5.180;2022-10-22T15:03:08;21.70;59.80
70456;DHT22;57916;51.996;5.180;2022-10-22T15:05:38;21.70;59.90
70456;DHT22;57916;51.996;5.180;2022-10-22T15:08:07;21.70;60.40
70456;DHT22;57916;51.996;5.180;2022-10-22T15:10:34;21.70;60.30
70456;DHT22;57916;51.996;5.180;2022-10-22T15:13:01;21.70;60.30
70456;DHT22;57916;51.996;5.180;2022-10-22T15:15:28;21.70;60.10
70456;DHT22;57916;51.996;5.180;2022-10-22T15:18:04;21.70;60.40
70456;DHT22;57916;51.996;5.180;2022-10-22T15:20:31;21.70;60.40
70456;DHT22;57916;51.996;5.180;2022-10-22T15:22:58;21.70;60.30
70456;DHT22;57916;51.996;5.180;2022-10-22T15:25:26;21.70;60.70
70456;DHT22;57916;51.996;5.180;2022-10-22T15:27:53;21.70;60.90
70456;DHT22;57916;51.996;5.180;2022-10-22T15:30:30;21.70;60.40
70456;DHT22;57916;51.996;5.180;2022-10-22T15:32:57;21.70;61.60
70456;DHT22;57916;51.996;5.180;2022-10-22T15:35:26;21.70;60.80
70456;DHT22;57916;51.996;5.180;2022-10-22T15:37:54;21.60;60.90
70456;DHT22;57916;51.996;5.180;2022-10-22T15:40:21;21.60;61.00
70456;DHT22;57916;51.996;5.180;2022-10-22T15:42:48;21.60;61.30
70456;DHT22;57916;51.996;5.180;2022-10-22T15:45:15;21.60;61.20
70456;DHT22;57916;51.996;5.180;2022-10-22T15:47:46;21.60;61.20
70456;DHT22;57916;51.996;5.180;2022-10-22T15:50:14;21.50;61.10
70456;DHT22;57916;51.996;5.180;2022-10-22T15:52:42;21.50;62.00
70456;DHT22;57916;51.996;5.180;2022-10-22T15:55:08;21.50;61.20
70456;DHT22;57916;51.996;5.180;2022-10-22T15:57:37;21.50;61.50
70456;DHT22;57916;51.996;5.180;2022-10-22T16:00:06;21.40;61.60
70456;DHT22;57916;51.996;5.180;2022-10-22T16:02:38;21.40;61.50
70456;DHT22;57916;51.996;5.180;2022-10-22T16:05:05;21.30;61.70
70456;DHT22;57916;51.996;5.180;2022-10-22T16:07:32;21.30;61.80
70456;DHT22;57916;51.996;5.180;2022-10-22T16:09:59;21.20;61.80
70456;DHT22;57916;51.996;5.180;2022-10-22T16:12:27;21.20;61.80
70456;DHT22;57916;51.996;5.180;2022-10-22T16:14:54;21.10;62.00
70456;DHT22;57916;51.996;5.180;2022-10-22T16:17:21;21.00;62.10
70456;DHT22;57916;51.996;5.180;2022-10-22T16:19:48;21.00;62.10
70456;DHT22;57916;51.996;5.180;2022-10-22T16:22:15;20.90;62.20
70456;DHT22;57916;51.996;5.180;2022-10-22T16:24:42;20.80;62.40
70456;DHT22;57916;51.996;5.180;2022-10-22T16:27:09;20.80;62.50
70456;DHT22;57916;51.996;5.180;2022-10-22T16:29:37;20.70;62.30
70456;DHT22;57916;51.996;5.180;2022-10-22T16:32:07;20.60;62.40
70456;DHT22;57916;51.996;5.180;2022-10-22T16:34:34;20.50;62.50
70456;DHT22;57916;51.996;5.180;2022-10-22T16:37:01;20.50;62.70
70456;DHT22;57916;51.996;5.180;2022-10-22T16:39:28;20.50;62.70
70456;DHT22;57916;51.996;5.180;2022-10-22T16:41:55;20.40;62.80
70456;DHT22;57916;51.996;5.180;2022-10-22T16:44:21;20.30;62.80
70456;DHT22;57916;51.996;5.180;2022-10-22T16:46:49;20.30;62.80
70456;DHT22;57916;51.996;5.180;2022-10-22T16:49:16;20.20;63.00
70456;DHT22;57916;51.996;5.180;2022-10-22T16:51:43;20.10;63.00
70456;DHT22;57916;51.996;5.180;2022-10-22T16:54:11;20.10;63.40
70456;DHT22;57916;51.996;5.180;2022-10-22T16:56:39;20.00;63.60
70456;DHT22;57916;51.996;5.180;2022-10-22T16:59:06;19.90;64.00
70456;DHT22;57916;51.996;5.180;2022-10-22T17:01:33;19.80;64.20
70456;DHT22;57916;51.996;5.180;2022-10-22T17:04:07;19.80;64.10
70456;DHT22;57916;51.996;5.180;2022-10-22T17:06:34;19.80;64.20
70456;DHT22;57916;51.996;5.180;2022-10-22T17:09:01;19.80;64.40
70456;DHT22;57916;51.996;5.180;2022-10-22T17:11:27;19.80;63.80
70456;DHT22;57916;51.996;5.180;2022-10-22T17:14:01;19.70;63.80
70456;DHT22;57916;51.996;5.180;2022-10-22T17:16:28;19.70;63.80
70456;DHT22;57916;51.996;5.180;2022-10-22T17:18:56;19.70;63.80
70456;DHT22;57916;51.996;5.180;2022-10-22T17:21:23;19.70;64.00
70456;DHT22;57916;51.996;5.180;2022-10-22T17:23:55;19.70;65.10
70456;DHT22;57916;51.996;5.180;2022-10-22T17:26:23;19.60;64.10
70456;DHT22;57916;51.996;5.180;2022-10-22T17:28:52;19.50;64.20
70456;DHT22;57916;51.996;5.180;2022-10-22T17:33:49;19.50;64.00
70456;DHT22;57916;51.996;5.180;2022-10-22T17:36:18;19.40;64.30
70456;DHT22;57916;51.996;5.180;2022-10-22T17:38:51;19.40;64.20
70456;DHT22;57916;51.996;5.180;2022-10-22T17:41:21;19.40;63.90
70456;DHT22;57916;51.996;5.180;2022-10-22T17:43:48;19.30;63.90
70456;DHT22;57916;51.996;5.180;2022-10-22T17:46:21;19.30;63.70